FBG weather

Simmons Army Air Field
Fort Bragg, North Carolina, United States

Public forecast

Using degrees Fahrenheit for public forecast. Weather courtesy of forecast.io.

Current aviation weather report (METAR) for Simmons Army Air Field

Retrieved 2020/07/11 15:56 UTC (18 minutes ago):

KFBG 111556Z AUTO 04003KT 10SM CLR 31/22 A2984 RMK AO2 SLP105 T03080215

Aviation forecast (TAF) for Simmons Army Air Field

Forecast is more than 6 hours old.

Retrieved 2020/07/11 09:16 UTC (7 hours ago):

TAF KFBG 110900Z 1109/1215 23006KT 9999 SKC QNH2980INS BECMG 1110/1111 22006KT 9999 SCT007 QNH2981INS BECMG 1112/1113 28006KT 9999 FEW030 QNH2983INS BECMG 1210/1211 34002KT 9999 SKC QNH2988INS TX32/1120Z TN21/1110Z